sensor_id;sensor_type;location;lat;lon;timestamp;P1;durP1;ratioP1;P2;durP2;ratioP2
51854;SDS011;37895;53.240;6.572;2023-07-28T00:00:14;40.55;;;19.27;;
51854;SDS011;37895;53.240;6.572;2023-07-28T00:02:40;33.42;;;17.45;;
51854;SDS011;37895;53.240;6.572;2023-07-28T00:05:05;31.77;;;17.13;;
51854;SDS011;37895;53.240;6.572;2023-07-28T00:07:31;33.58;;;18.63;;
51854;SDS011;37895;53.240;6.572;2023-07-28T00:10:00;31.02;;;18.05;;
51854;SDS011;37895;53.240;6.572;2023-07-28T00:12:26;48.95;;;20.50;;
51854;SDS011;37895;53.240;6.572;2023-07-28T00:14:51;36.83;;;18.70;;
51854;SDS011;37895;53.240;6.572;2023-07-28T00:17:17;39.90;;;19.67;;
51854;SDS011;37895;53.240;6.572;2023-07-28T00:19:43;43.53;;;19.67;;
51854;SDS011;37895;53.240;6.572;2023-07-28T00:22:08;41.95;;;20.23;;
51854;SDS011;37895;53.240;6.572;2023-07-28T00:24:34;39.97;;;20.27;;
51854;SDS011;37895;53.240;6.572;2023-07-28T00:26:59;33.50;;;18.02;;
51854;SDS011;37895;53.240;6.572;2023-07-28T00:29:25;33.47;;;17.85;;
51854;SDS011;37895;53.240;6.572;2023-07-28T00:31:51;36.90;;;18.70;;
51854;SDS011;37895;53.240;6.572;2023-07-28T00:34:17;27.55;;;17.42;;
51854;SDS011;37895;53.240;6.572;2023-07-28T00:36:43;34.10;;;18.05;;
51854;SDS011;37895;53.240;6.572;2023-07-28T00:39:09;34.03;;;18.25;;
51854;SDS011;37895;53.240;6.572;2023-07-28T00:41:34;31.58;;;17.23;;
51854;SDS011;37895;53.240;6.572;2023-07-28T00:44:00;30.10;;;17.13;;
51854;SDS011;37895;53.240;6.572;2023-07-28T00:46:25;28.20;;;17.60;;
51854;SDS011;37895;53.240;6.572;2023-07-28T00:48:51;31.30;;;18.27;;
51854;SDS011;37895;53.240;6.572;2023-07-28T00:51:18;26.83;;;17.15;;
51854;SDS011;37895;53.240;6.572;2023-07-28T00:53:43;36.75;;;19.20;;
51854;SDS011;37895;53.240;6.572;2023-07-28T00:56:10;34.50;;;18.67;;
51854;SDS011;37895;53.240;6.572;2023-07-28T00:58:36;31.95;;;18.40;;
51854;SDS011;37895;53.240;6.572;2023-07-28T01:01:02;35.60;;;19.98;;
51854;SDS011;37895;53.240;6.572;2023-07-28T01:03:27;35.25;;;20.88;;
51854;SDS011;37895;53.240;6.572;2023-07-28T01:08:30;31.73;;;20.05;;
51854;SDS011;37895;53.240;6.572;2023-07-28T01:11:07;37.83;;;21.70;;
51854;SDS011;37895;53.240;6.572;2023-07-28T01:13:32;40.40;;;21.90;;
51854;SDS011;37895;53.240;6.572;2023-07-28T01:15:58;39.45;;;21.90;;
51854;SDS011;37895;53.240;6.572;2023-07-28T01:18:26;40.88;;;23.02;;
51854;SDS011;37895;53.240;6.572;2023-07-28T01:20:52;43.22;;;22.42;;
51854;SDS011;37895;53.240;6.572;2023-07-28T01:23:27;44.65;;;23.38;;
51854;SDS011;37895;53.240;6.572;2023-07-28T01:26:09;39.55;;;21.27;;
51854;SDS011;37895;53.240;6.572;2023-07-28T01:28:36;37.53;;;21.17;;
51854;SDS011;37895;53.240;6.572;2023-07-28T01:31:04;45.35;;;24.15;;
51854;SDS011;37895;53.240;6.572;2023-07-28T01:33:31;48.05;;;25.38;;
51854;SDS011;37895;53.240;6.572;2023-07-28T01:35:58;37.35;;;21.58;;
51854;SDS011;37895;53.240;6.572;2023-07-28T01:38:25;40.60;;;22.88;;
51854;SDS011;37895;53.240;6.572;2023-07-28T01:43:17;44.92;;;21.80;;
51854;SDS011;37895;53.240;6.572;2023-07-28T01:45:43;42.25;;;21.52;;
51854;SDS011;37895;53.240;6.572;2023-07-28T01:48:08;46.90;;;23.35;;
51854;SDS011;37895;53.240;6.572;2023-07-28T01:50:34;49.35;;;22.77;;
51854;SDS011;37895;53.240;6.572;2023-07-28T01:55:26;35.60;;;21.35;;
51854;SDS011;37895;53.240;6.572;2023-07-28T02:00:22;37.80;;;21.27;;
51854;SDS011;37895;53.240;6.572;2023-07-28T02:02:48;43.25;;;22.75;;
51854;SDS011;37895;53.240;6.572;2023-07-28T02:05:14;33.20;;;19.92;;
51854;SDS011;37895;53.240;6.572;2023-07-28T02:07:39;40.88;;;21.85;;
51854;SDS011;37895;53.240;6.572;2023-07-28T02:10:06;44.45;;;22.42;;
51854;SDS011;37895;53.240;6.572;2023-07-28T02:12:32;35.10;;;20.08;;
51854;SDS011;37895;53.240;6.572;2023-07-28T02:14:57;32.22;;;20.95;;
51854;SDS011;37895;53.240;6.572;2023-07-28T02:17:23;39.45;;;20.45;;
51854;SDS011;37895;53.240;6.572;2023-07-28T02:19:48;30.88;;;18.58;;
51854;SDS011;37895;53.240;6.572;2023-07-28T02:22:14;30.30;;;19.35;;
51854;SDS011;37895;53.240;6.572;2023-07-28T02:24:40;30.48;;;19.50;;
51854;SDS011;37895;53.240;6.572;2023-07-28T02:27:05;32.25;;;18.25;;
51854;SDS011;37895;53.240;6.572;2023-07-28T02:29:31;36.13;;;20.60;;
51854;SDS011;37895;53.240;6.572;2023-07-28T02:31:57;25.35;;;17.10;;
51854;SDS011;37895;53.240;6.572;2023-07-28T02:34:22;27.15;;;17.20;;
51854;SDS011;37895;53.240;6.572;2023-07-28T02:36:48;26.95;;;16.90;;
51854;SDS011;37895;53.240;6.572;2023-07-28T02:39:13;35.90;;;20.23;;
51854;SDS011;37895;53.240;6.572;2023-07-28T02:41:39;30.13;;;19.75;;
51854;SDS011;37895;53.240;6.572;2023-07-28T02:44:05;35.35;;;19.73;;
51854;SDS011;37895;53.240;6.572;2023-07-28T02:46:30;35.75;;;19.35;;
51854;SDS011;37895;53.240;6.572;2023-07-28T02:48:56;32.30;;;19.80;;
51854;SDS011;37895;53.240;6.572;2023-07-28T02:51:21;47.15;;;22.30;;
51854;SDS011;37895;53.240;6.572;2023-07-28T02:53:47;36.58;;;21.63;;
51854;SDS011;37895;53.240;6.572;2023-07-28T02:56:13;38.72;;;21.08;;
51854;SDS011;37895;53.240;6.572;2023-07-28T02:58:38;34.03;;;20.50;;
51854;SDS011;37895;53.240;6.572;2023-07-28T03:01:04;36.72;;;21.63;;
51854;SDS011;37895;53.240;6.572;2023-07-28T03:03:29;47.75;;;23.23;;
51854;SDS011;37895;53.240;6.572;2023-07-28T03:08:21;39.40;;;22.35;;
51854;SDS011;37895;53.240;6.572;2023-07-28T03:10:47;37.38;;;22.23;;
51854;SDS011;37895;53.240;6.572;2023-07-28T03:13:12;40.60;;;22.63;;
51854;SDS011;37895;53.240;6.572;2023-07-28T03:15:38;42.53;;;21.95;;
51854;SDS011;37895;53.240;6.572;2023-07-28T03:18:03;37.67;;;22.55;;
51854;SDS011;37895;53.240;6.572;2023-07-28T03:20:29;45.90;;;23.67;;
51854;SDS011;37895;53.240;6.572;2023-07-28T03:22:55;43.63;;;23.80;;
51854;SDS011;37895;53.240;6.572;2023-07-28T03:25:21;43.30;;;22.73;;
51854;SDS011;37895;53.240;6.572;2023-07-28T03:27:47;36.47;;;22.38;;
51854;SDS011;37895;53.240;6.572;2023-07-28T03:30:13;34.95;;;21.80;;
51854;SDS011;37895;53.240;6.572;2023-07-28T03:32:39;37.45;;;21.05;;
51854;SDS011;37895;53.240;6.572;2023-07-28T03:35:05;41.45;;;21.88;;
51854;SDS011;37895;53.240;6.572;2023-07-28T03:37:32;48.30;;;22.85;;
51854;SDS011;37895;53.240;6.572;2023-07-28T03:39:58;39.47;;;20.73;;
51854;SDS011;37895;53.240;6.572;2023-07-28T03:42:23;42.60;;;21.60;;
51854;SDS011;37895;53.240;6.572;2023-07-28T03:44:49;37.25;;;21.23;;
51854;SDS011;37895;53.240;6.572;2023-07-28T03:47:15;42.35;;;21.85;;
51854;SDS011;37895;53.240;6.572;2023-07-28T03:49:41;45.47;;;20.25;;
51854;SDS011;37895;53.240;6.572;2023-07-28T03:52:06;42.33;;;20.73;;
51854;SDS011;37895;53.240;6.572;2023-07-28T03:54:32;32.00;;;19.13;;
51854;SDS011;37895;53.240;6.572;2023-07-28T03:56:58;38.17;;;18.10;;
51854;SDS011;37895;53.240;6.572;2023-07-28T03:59:23;35.50;;;18.45;;
51854;SDS011;37895;53.240;6.572;2023-07-28T04:01:49;35.75;;;18.63;;
51854;SDS011;37895;53.240;6.572;2023-07-28T04:04:15;40.78;;;20.30;;
51854;SDS011;37895;53.240;6.572;2023-07-28T04:09:11;26.52;;;15.48;;
51854;SDS011;37895;53.240;6.572;2023-07-28T04:11:38;30.88;;;16.67;;
51854;SDS011;37895;53.240;6.572;2023-07-28T04:14:04;33.35;;;14.27;;
51854;SDS011;37895;53.240;6.572;2023-07-28T04:16:29;32.88;;;13.57;;
51854;SDS011;37895;53.240;6.572;2023-07-28T04:18:55;29.80;;;14.82;;
51854;SDS011;37895;53.240;6.572;2023-07-28T04:21:21;33.30;;;14.77;;
51854;SDS011;37895;53.240;6.572;2023-07-28T04:23:47;32.38;;;14.55;;
51854;SDS011;37895;53.240;6.572;2023-07-28T04:26:13;29.75;;;14.73;;
51854;SDS011;37895;53.240;6.572;2023-07-28T04:28:38;30.10;;;13.25;;
51854;SDS011;37895;53.240;6.572;2023-07-28T04:31:04;25.23;;;14.68;;
51854;SDS011;37895;53.240;6.572;2023-07-28T04:33:30;28.25;;;13.65;;
51854;SDS011;37895;53.240;6.572;2023-07-28T04:35:56;33.00;;;15.18;;
51854;SDS011;37895;53.240;6.572;2023-07-28T04:38:21;30.90;;;14.15;;
51854;SDS011;37895;53.240;6.572;2023-07-28T04:40:47;26.48;;;13.45;;
51854;SDS011;37895;53.240;6.572;2023-07-28T04:43:13;29.27;;;13.63;;
51854;SDS011;37895;53.240;6.572;2023-07-28T04:45:38;31.75;;;12.98;;
51854;SDS011;37895;53.240;6.572;2023-07-28T04:48:04;30.42;;;13.50;;
51854;SDS011;37895;53.240;6.572;2023-07-28T04:50:30;28.23;;;13.27;;
51854;SDS011;37895;53.240;6.572;2023-07-28T04:52:57;25.15;;;14.20;;
51854;SDS011;37895;53.240;6.572;2023-07-28T04:57:49;28.67;;;15.55;;
51854;SDS011;37895;53.240;6.572;2023-07-28T05:00:14;23.98;;;13.73;;
51854;SDS011;37895;53.240;6.572;2023-07-28T05:02:40;26.33;;;14.10;;
51854;SDS011;37895;53.240;6.572;2023-07-28T05:05:06;23.02;;;12.63;;
51854;SDS011;37895;53.240;6.572;2023-07-28T05:07:32;26.00;;;14.52;;
51854;SDS011;37895;53.240;6.572;2023-07-28T05:09:57;31.50;;;14.82;;
51854;SDS011;37895;53.240;6.572;2023-07-28T05:12:23;20.85;;;13.30;;
51854;SDS011;37895;53.240;6.572;2023-07-28T05:14:48;20.15;;;13.32;;
51854;SDS011;37895;53.240;6.572;2023-07-28T05:17:14;18.38;;;11.73;;
51854;SDS011;37895;53.240;6.572;2023-07-28T05:19:40;20.48;;;13.25;;
51854;SDS011;37895;53.240;6.572;2023-07-28T05:24:31;25.80;;;13.65;;
51854;SDS011;37895;53.240;6.572;2023-07-28T05:27:00;20.63;;;12.68;;
51854;SDS011;37895;53.240;6.572;2023-07-28T05:29:26;20.45;;;12.52;;
51854;SDS011;37895;53.240;6.572;2023-07-28T05:31:51;19.23;;;12.35;;
51854;SDS011;37895;53.240;6.572;2023-07-28T05:34:17;23.70;;;12.05;;
51854;SDS011;37895;53.240;6.572;2023-07-28T05:36:43;20.73;;;11.05;;
51854;SDS011;37895;53.240;6.572;2023-07-28T05:41:34;19.70;;;10.75;;
51854;SDS011;37895;53.240;6.572;2023-07-28T05:44:01;19.33;;;12.40;;
51854;SDS011;37895;53.240;6.572;2023-07-28T05:48:54;19.02;;;10.65;;
51854;SDS011;37895;53.240;6.572;2023-07-28T05:51:20;19.08;;;10.52;;
51854;SDS011;37895;53.240;6.572;2023-07-28T05:53:46;18.52;;;10.48;;
51854;SDS011;37895;53.240;6.572;2023-07-28T05:56:12;16.65;;;10.00;;
51854;SDS011;37895;53.240;6.572;2023-07-28T05:58:38;17.77;;;10.18;;
51854;SDS011;37895;53.240;6.572;2023-07-28T06:01:03;15.77;;;9.32;;
51854;SDS011;37895;53.240;6.572;2023-07-28T06:03:29;19.65;;;9.93;;
51854;SDS011;37895;53.240;6.572;2023-07-28T06:08:21;13.77;;;9.23;;
51854;SDS011;37895;53.240;6.572;2023-07-28T06:10:47;14.68;;;9.68;;
51854;SDS011;37895;53.240;6.572;2023-07-28T06:13:13;15.63;;;10.82;;
51854;SDS011;37895;53.240;6.572;2023-07-28T06:15:39;13.43;;;10.43;;
51854;SDS011;37895;53.240;6.572;2023-07-28T06:18:07;17.10;;;11.50;;
51854;SDS011;37895;53.240;6.572;2023-07-28T06:20:33;21.02;;;10.98;;
51854;SDS011;37895;53.240;6.572;2023-07-28T06:22:59;15.20;;;9.80;;
51854;SDS011;37895;53.240;6.572;2023-07-28T06:25:25;12.68;;;9.80;;
51854;SDS011;37895;53.240;6.572;2023-07-28T06:27:51;16.55;;;9.75;;
51854;SDS011;37895;53.240;6.572;2023-07-28T06:30:17;14.82;;;11.98;;
51854;SDS011;37895;53.240;6.572;2023-07-28T06:32:43;13.90;;;10.80;;
51854;SDS011;37895;53.240;6.572;2023-07-28T06:35:09;15.32;;;9.77;;
51854;SDS011;37895;53.240;6.572;2023-07-28T06:37:36;13.00;;;11.63;;
51854;SDS011;37895;53.240;6.572;2023-07-28T06:40:03;14.48;;;11.00;;
51854;SDS011;37895;53.240;6.572;2023-07-28T06:42:32;17.48;;;11.95;;
51854;SDS011;37895;53.240;6.572;2023-07-28T06:44:58;12.77;;;10.25;;
51854;SDS011;37895;53.240;6.572;2023-07-28T06:47:24;13.57;;;10.05;;
51854;SDS011;37895;53.240;6.572;2023-07-28T06:49:52;13.23;;;11.10;;
51854;SDS011;37895;53.240;6.572;2023-07-28T06:52:18;13.20;;;10.60;;
51854;SDS011;37895;53.240;6.572;2023-07-28T06:54:44;12.80;;;10.85;;
51854;SDS011;37895;53.240;6.572;2023-07-28T06:57:11;12.27;;;11.15;;
51854;SDS011;37895;53.240;6.572;2023-07-28T06:59:36;12.25;;;10.95;;
51854;SDS011;37895;53.240;6.572;2023-07-28T07:02:02;12.88;;;11.68;;
51854;SDS011;37895;53.240;6.572;2023-07-28T07:04:28;12.80;;;11.48;;
51854;SDS011;37895;53.240;6.572;2023-07-28T07:06:54;12.30;;;11.10;;
51854;SDS011;37895;53.240;6.572;2023-07-28T07:09:19;13.45;;;12.05;;
51854;SDS011;37895;53.240;6.572;2023-07-28T07:11:46;10.88;;;9.85;;
51854;SDS011;37895;53.240;6.572;2023-07-28T07:14:11;10.90;;;9.60;;
51854;SDS011;37895;53.240;6.572;2023-07-28T07:16:37;11.63;;;10.30;;
51854;SDS011;37895;53.240;6.572;2023-07-28T07:19:03;9.57;;;8.30;;
51854;SDS011;37895;53.240;6.572;2023-07-28T07:21:28;10.18;;;9.15;;
51854;SDS011;37895;53.240;6.572;2023-07-28T07:23:54;8.40;;;7.60;;
51854;SDS011;37895;53.240;6.572;2023-07-28T07:26:20;8.45;;;7.53;;
51854;SDS011;37895;53.240;6.572;2023-07-28T07:28:46;10.40;;;7.85;;
51854;SDS011;37895;53.240;6.572;2023-07-28T07:31:12;10.35;;;9.25;;
51854;SDS011;37895;53.240;6.572;2023-07-28T07:33:38;11.07;;;8.57;;
51854;SDS011;37895;53.240;6.572;2023-07-28T07:38:30;9.63;;;8.73;;
51854;SDS011;37895;53.240;6.572;2023-07-28T07:40:56;7.90;;;7.20;;
51854;SDS011;37895;53.240;6.572;2023-07-28T07:43:21;8.77;;;7.40;;
51854;SDS011;37895;53.240;6.572;2023-07-28T07:45:47;7.68;;;6.88;;
51854;SDS011;37895;53.240;6.572;2023-07-28T07:48:15;7.93;;;7.07;;
51854;SDS011;37895;53.240;6.572;2023-07-28T07:50:40;7.82;;;7.13;;
51854;SDS011;37895;53.240;6.572;2023-07-28T07:55:31;6.88;;;6.20;;
51854;SDS011;37895;53.240;6.572;2023-07-28T07:57:57;9.63;;;7.95;;
51854;SDS011;37895;53.240;6.572;2023-07-28T08:00:23;8.43;;;7.55;;
51854;SDS011;37895;53.240;6.572;2023-07-28T08:02:49;7.90;;;7.10;;
51854;SDS011;37895;53.240;6.572;2023-07-28T08:07:41;6.78;;;6.10;;
51854;SDS011;37895;53.240;6.572;2023-07-28T08:10:07;7.15;;;6.55;;
51854;SDS011;37895;53.240;6.572;2023-07-28T08:12:33;6.80;;;6.00;;
51854;SDS011;37895;53.240;6.572;2023-07-28T08:14:59;11.52;;;7.25;;
51854;SDS011;37895;53.240;6.572;2023-07-28T08:17:24;7.47;;;6.57;;
51854;SDS011;37895;53.240;6.572;2023-07-28T08:19:50;7.88;;;6.72;;
51854;SDS011;37895;53.240;6.572;2023-07-28T08:22:16;7.65;;;6.93;;
51854;SDS011;37895;53.240;6.572;2023-07-28T08:24:42;8.15;;;7.22;;
51854;SDS011;37895;53.240;6.572;2023-07-28T08:27:07;9.05;;;7.20;;
51854;SDS011;37895;53.240;6.572;2023-07-28T08:29:33;9.35;;;6.53;;
51854;SDS011;37895;53.240;6.572;2023-07-28T08:31:59;7.60;;;6.53;;
51854;SDS011;37895;53.240;6.572;2023-07-28T08:34:24;8.18;;;7.40;;
51854;SDS011;37895;53.240;6.572;2023-07-28T08:36:51;8.77;;;6.93;;
51854;SDS011;37895;53.240;6.572;2023-07-28T08:39:19;8.80;;;6.38;;
51854;SDS011;37895;53.240;6.572;2023-07-28T08:41:45;7.00;;;6.20;;
51854;SDS011;37895;53.240;6.572;2023-07-28T08:44:11;7.72;;;6.95;;
51854;SDS011;37895;53.240;6.572;2023-07-28T08:46:36;7.32;;;6.53;;
51854;SDS011;37895;53.240;6.572;2023-07-28T08:49:02;7.55;;;6.00;;
51854;SDS011;37895;53.240;6.572;2023-07-28T08:51:28;6.95;;;6.07;;
51854;SDS011;37895;53.240;6.572;2023-07-28T08:53:54;7.07;;;5.63;;
51854;SDS011;37895;53.240;6.572;2023-07-28T08:56:20;6.68;;;6.05;;
51854;SDS011;37895;53.240;6.572;2023-07-28T08:58:46;7.50;;;5.50;;
51854;SDS011;37895;53.240;6.572;2023-07-28T09:03:39;5.40;;;4.93;;
51854;SDS011;37895;53.240;6.572;2023-07-28T09:06:06;5.32;;;4.80;;
51854;SDS011;37895;53.240;6.572;2023-07-28T09:08:42;4.65;;;4.25;;
51854;SDS011;37895;53.240;6.572;2023-07-28T09:11:56;5.22;;;4.55;;
51854;SDS011;37895;53.240;6.572;2023-07-28T09:14:46;7.13;;;4.53;;
51854;SDS011;37895;53.240;6.572;2023-07-28T09:19:54;5.07;;;4.57;;
51854;SDS011;37895;53.240;6.572;2023-07-28T09:22:21;6.07;;;5.32;;
51854;SDS011;37895;53.240;6.572;2023-07-28T09:24:48;4.35;;;3.95;;
51854;SDS011;37895;53.240;6.572;2023-07-28T09:27:25;6.18;;;4.43;;
51854;SDS011;37895;53.240;6.572;2023-07-28T09:29:51;5.25;;;3.58;;
51854;SDS011;37895;53.240;6.572;2023-07-28T09:32:29;5.43;;;3.78;;
51854;SDS011;37895;53.240;6.572;2023-07-28T09:37:38;10.75;;;4.65;;
51854;SDS011;37895;53.240;6.572;2023-07-28T09:40:06;5.18;;;4.28;;
51854;SDS011;37895;53.240;6.572;2023-07-28T09:42:37;4.78;;;4.30;;
51854;SDS011;37895;53.240;6.572;2023-07-28T09:45:07;4.18;;;3.78;;
51854;SDS011;37895;53.240;6.572;2023-07-28T09:47:35;3.78;;;3.47;;
51854;SDS011;37895;53.240;6.572;2023-07-28T09:50:05;6.05;;;3.58;;
51854;SDS011;37895;53.240;6.572;2023-07-28T09:52:34;4.25;;;2.92;;
51854;SDS011;37895;53.240;6.572;2023-07-28T09:55:06;4.13;;;3.28;;
51854;SDS011;37895;53.240;6.572;2023-07-28T09:57:37;4.82;;;2.97;;
51854;SDS011;37895;53.240;6.572;2023-07-28T10:00:06;4.00;;;2.90;;
51854;SDS011;37895;53.240;6.572;2023-07-28T10:02:35;4.28;;;3.42;;
51854;SDS011;37895;53.240;6.572;2023-07-28T10:05:02;5.63;;;3.05;;
51854;SDS011;37895;53.240;6.572;2023-07-28T10:07:29;3.70;;;3.30;;
51854;SDS011;37895;53.240;6.572;2023-07-28T10:09:55;4.10;;;3.55;;
51854;SDS011;37895;53.240;6.572;2023-07-28T10:12:25;5.03;;;3.50;;
51854;SDS011;37895;53.240;6.572;2023-07-28T10:15:01;5.97;;;3.65;;
51854;SDS011;37895;53.240;6.572;2023-07-28T10:17:32;3.70;;;3.25;;
51854;SDS011;37895;53.240;6.572;2023-07-28T10:20:02;3.83;;;2.97;;
51854;SDS011;37895;53.240;6.572;2023-07-28T10:22:34;3.92;;;3.20;;
51854;SDS011;37895;53.240;6.572;2023-07-28T10:25:12;4.82;;;3.08;;
51854;SDS011;37895;53.240;6.572;2023-07-28T10:27:46;3.22;;;2.85;;
51854;SDS011;37895;53.240;6.572;2023-07-28T10:32:39;6.43;;;3.33;;
51854;SDS011;37895;53.240;6.572;2023-07-28T10:35:06;4.45;;;3.60;;
51854;SDS011;37895;53.240;6.572;2023-07-28T10:37:39;4.03;;;3.63;;
51854;SDS011;37895;53.240;6.572;2023-07-28T10:42:56;6.15;;;3.83;;
51854;SDS011;37895;53.240;6.572;2023-07-28T10:45:24;3.80;;;3.03;;
51854;SDS011;37895;53.240;6.572;2023-07-28T10:47:52;5.07;;;3.80;;
51854;SDS011;37895;53.240;6.572;2023-07-28T10:50:20;4.10;;;3.58;;
51854;SDS011;37895;53.240;6.572;2023-07-28T10:52:47;6.68;;;3.20;;
51854;SDS011;37895;53.240;6.572;2023-07-28T10:57:42;5.53;;;3.40;;
51854;SDS011;37895;53.240;6.572;2023-07-28T11:00:12;3.00;;;2.70;;
51854;SDS011;37895;53.240;6.572;2023-07-28T11:02:44;4.10;;;2.45;;
51854;SDS011;37895;53.240;6.572;2023-07-28T11:05:11;3.70;;;2.20;;
51854;SDS011;37895;53.240;6.572;2023-07-28T11:07:42;5.50;;;2.67;;
51854;SDS011;37895;53.240;6.572;2023-07-28T11:10:13;4.35;;;2.40;;
51854;SDS011;37895;53.240;6.572;2023-07-28T11:12:43;3.55;;;3.00;;
51854;SDS011;37895;53.240;6.572;2023-07-28T11:15:12;3.78;;;3.25;;
51854;SDS011;37895;53.240;6.572;2023-07-28T11:17:39;4.60;;;3.00;;
51854;SDS011;37895;53.240;6.572;2023-07-28T11:20:39;2.63;;;2.28;;
51854;SDS011;37895;53.240;6.572;2023-07-28T11:22:59;3.22;;;2.33;;
51854;SDS011;37895;53.240;6.572;2023-07-28T11:25:27;2.28;;;1.95;;
51854;SDS011;37895;53.240;6.572;2023-07-28T11:27:54;3.50;;;2.30;;
51854;SDS011;37895;53.240;6.572;2023-07-28T11:32:47;4.00;;;2.13;;
51854;SDS011;37895;53.240;6.572;2023-07-28T11:35:15;3.17;;;1.90;;
51854;SDS011;37895;53.240;6.572;2023-07-28T11:37:43;2.88;;;2.17;;
51854;SDS011;37895;53.240;6.572;2023-07-28T11:40:11;3.38;;;1.80;;
51854;SDS011;37895;53.240;6.572;2023-07-28T11:42:38;3.83;;;2.20;;
51854;SDS011;37895;53.240;6.572;2023-07-28T11:45:24;2.95;;;1.90;;
51854;SDS011;37895;53.240;6.572;2023-07-28T11:47:57;7.63;;;2.55;;
51854;SDS011;37895;53.240;6.572;2023-07-28T11:50:26;2.97;;;1.55;;
51854;SDS011;37895;53.240;6.572;2023-07-28T11:52:52;2.53;;;1.83;;
51854;SDS011;37895;53.240;6.572;2023-07-28T12:00:11;5.43;;;2.25;;
51854;SDS011;37895;53.240;6.572;2023-07-28T12:02:41;3.45;;;1.80;;
51854;SDS011;37895;53.240;6.572;2023-07-28T12:05:14;2.03;;;1.60;;
51854;SDS011;37895;53.240;6.572;2023-07-28T12:07:41;2.63;;;1.73;;
51854;SDS011;37895;53.240;6.572;2023-07-28T12:10:11;2.25;;;2.00;;
51854;SDS011;37895;53.240;6.572;2023-07-28T12:12:45;2.83;;;1.70;;
51854;SDS011;37895;53.240;6.572;2023-07-28T12:15:18;2.03;;;1.63;;
51854;SDS011;37895;53.240;6.572;2023-07-28T12:20:45;4.03;;;2.08;;
51854;SDS011;37895;53.240;6.572;2023-07-28T12:23:16;2.28;;;1.80;;
51854;SDS011;37895;53.240;6.572;2023-07-28T12:25:43;2.10;;;1.50;;
51854;SDS011;37895;53.240;6.572;2023-07-28T12:28:09;3.10;;;1.63;;
51854;SDS011;37895;53.240;6.572;2023-07-28T12:30:36;3.28;;;1.70;;
51854;SDS011;37895;53.240;6.572;2023-07-28T12:33:02;1.88;;;1.42;;
51854;SDS011;37895;53.240;6.572;2023-07-28T12:35:29;2.63;;;1.70;;
51854;SDS011;37895;53.240;6.572;2023-07-28T12:37:58;1.65;;;1.55;;
51854;SDS011;37895;53.240;6.572;2023-07-28T12:40:28;2.60;;;1.52;;
51854;SDS011;37895;53.240;6.572;2023-07-28T12:42:54;2.20;;;1.63;;
51854;SDS011;37895;53.240;6.572;2023-07-28T12:45:20;2.00;;;1.52;;
51854;SDS011;37895;53.240;6.572;2023-07-28T12:47:46;2.17;;;1.60;;
51854;SDS011;37895;53.240;6.572;2023-07-28T12:50:13;2.10;;;1.63;;
51854;SDS011;37895;53.240;6.572;2023-07-28T12:52:38;2.70;;;1.40;;
51854;SDS011;37895;53.240;6.572;2023-07-28T12:57:30;3.20;;;1.80;;
51854;SDS011;37895;53.240;6.572;2023-07-28T12:59:57;1.80;;;1.67;;
51854;SDS011;37895;53.240;6.572;2023-07-28T13:02:22;1.60;;;1.48;;
51854;SDS011;37895;53.240;6.572;2023-07-28T13:07:13;2.25;;;1.80;;
51854;SDS011;37895;53.240;6.572;2023-07-28T13:12:06;2.63;;;1.50;;
51854;SDS011;37895;53.240;6.572;2023-07-28T13:14:33;2.25;;;1.80;;
51854;SDS011;37895;53.240;6.572;2023-07-28T13:16:58;3.25;;;1.77;;
51854;SDS011;37895;53.240;6.572;2023-07-28T13:21:50;3.00;;;1.50;;
51854;SDS011;37895;53.240;6.572;2023-07-28T13:26:41;2.42;;;1.60;;
51854;SDS011;37895;53.240;6.572;2023-07-28T13:29:07;1.40;;;1.30;;
51854;SDS011;37895;53.240;6.572;2023-07-28T13:31:32;1.67;;;1.45;;
51854;SDS011;37895;53.240;6.572;2023-07-28T13:33:58;1.67;;;1.33;;
51854;SDS011;37895;53.240;6.572;2023-07-28T13:36:24;1.42;;;1.33;;
51854;SDS011;37895;53.240;6.572;2023-07-28T13:38:50;1.60;;;1.40;;
51854;SDS011;37895;53.240;6.572;2023-07-28T13:41:15;2.60;;;1.70;;
51854;SDS011;37895;53.240;6.572;2023-07-28T13:43:41;2.05;;;1.42;;
51854;SDS011;37895;53.240;6.572;2023-07-28T13:46:07;2.05;;;1.63;;
51854;SDS011;37895;53.240;6.572;2023-07-28T13:48:33;2.60;;;1.75;;
51854;SDS011;37895;53.240;6.572;2023-07-28T13:51:01;5.35;;;1.60;;
51854;SDS011;37895;53.240;6.572;2023-07-28T13:53:27;2.15;;;1.90;;
51854;SDS011;37895;53.240;6.572;2023-07-28T13:55:53;3.13;;;1.60;;
51854;SDS011;37895;53.240;6.572;2023-07-28T13:58:20;3.00;;;1.52;;
51854;SDS011;37895;53.240;6.572;2023-07-28T14:00:46;2.80;;;1.80;;
51854;SDS011;37895;53.240;6.572;2023-07-28T14:03:11;2.70;;;2.10;;
51854;SDS011;37895;53.240;6.572;2023-07-28T14:05:38;2.33;;;1.90;;
51854;SDS011;37895;53.240;6.572;2023-07-28T14:08:04;2.95;;;1.90;;
51854;SDS011;37895;53.240;6.572;2023-07-28T14:10:29;2.67;;;1.83;;
51854;SDS011;37895;53.240;6.572;2023-07-28T14:12:57;2.28;;;1.80;;
51854;SDS011;37895;53.240;6.572;2023-07-28T14:15:23;3.70;;;1.95;;
51854;SDS011;37895;53.240;6.572;2023-07-28T14:17:49;3.13;;;2.25;;
51854;SDS011;37895;53.240;6.572;2023-07-28T14:20:15;2.40;;;2.10;;
51854;SDS011;37895;53.240;6.572;2023-07-28T14:22:40;2.38;;;2.17;;
51854;SDS011;37895;53.240;6.572;2023-07-28T14:25:06;3.35;;;1.98;;
51854;SDS011;37895;53.240;6.572;2023-07-28T14:27:32;4.32;;;2.00;;
51854;SDS011;37895;53.240;6.572;2023-07-28T14:29:58;4.32;;;1.92;;
51854;SDS011;37895;53.240;6.572;2023-07-28T14:32:23;3.20;;;1.73;;
51854;SDS011;37895;53.240;6.572;2023-07-28T14:37:15;2.70;;;1.90;;
51854;SDS011;37895;53.240;6.572;2023-07-28T14:39:41;2.50;;;1.80;;
51854;SDS011;37895;53.240;6.572;2023-07-28T14:42:07;3.63;;;1.75;;
51854;SDS011;37895;53.240;6.572;2023-07-28T14:44:33;1.90;;;1.58;;
51854;SDS011;37895;53.240;6.572;2023-07-28T14:46:58;3.65;;;1.90;;
51854;SDS011;37895;53.240;6.572;2023-07-28T14:49:24;4.32;;;2.00;;
51854;SDS011;37895;53.240;6.572;2023-07-28T14:51:53;2.40;;;1.63;;
51854;SDS011;37895;53.240;6.572;2023-07-28T14:54:21;2.60;;;1.60;;
51854;SDS011;37895;53.240;6.572;2023-07-28T14:56:47;2.45;;;1.90;;
51854;SDS011;37895;53.240;6.572;2023-07-28T14:59:13;2.53;;;1.88;;
51854;SDS011;37895;53.240;6.572;2023-07-28T15:01:39;2.60;;;2.00;;
51854;SDS011;37895;53.240;6.572;2023-07-28T15:04:04;3.95;;;2.13;;
51854;SDS011;37895;53.240;6.572;2023-07-28T15:08:56;2.15;;;1.75;;
51854;SDS011;37895;53.240;6.572;2023-07-28T15:13:50;2.95;;;2.03;;
51854;SDS011;37895;53.240;6.572;2023-07-28T15:16:16;2.95;;;1.90;;
51854;SDS011;37895;53.240;6.572;2023-07-28T15:18:42;2.63;;;2.17;;
51854;SDS011;37895;53.240;6.572;2023-07-28T15:21:07;2.65;;;1.92;;
51854;SDS011;37895;53.240;6.572;2023-07-28T15:23:33;3.05;;;1.95;;
51854;SDS011;37895;53.240;6.572;2023-07-28T15:25:59;2.58;;;1.90;;
51854;SDS011;37895;53.240;6.572;2023-07-28T15:28:25;3.50;;;1.80;;
51854;SDS011;37895;53.240;6.572;2023-07-28T15:30:51;3.10;;;2.00;;
51854;SDS011;37895;53.240;6.572;2023-07-28T15:33:18;2.70;;;1.98;;
51854;SDS011;37895;53.240;6.572;2023-07-28T15:35:47;3.10;;;1.92;;
51854;SDS011;37895;53.240;6.572;2023-07-28T15:38:13;3.13;;;1.88;;
51854;SDS011;37895;53.240;6.572;2023-07-28T15:40:39;5.35;;;2.40;;
51854;SDS011;37895;53.240;6.572;2023-07-28T15:43:05;9.65;;;2.17;;
51854;SDS011;37895;53.240;6.572;2023-07-28T15:45:31;5.32;;;2.22;;
51854;SDS011;37895;53.240;6.572;2023-07-28T15:47:58;2.92;;;2.20;;
51854;SDS011;37895;53.240;6.572;2023-07-28T15:50:25;2.97;;;2.15;;
51854;SDS011;37895;53.240;6.572;2023-07-28T15:52:51;4.40;;;2.13;;